Nearby METAR Reports

 

KAVP - Avoca/Wilkes B., Pennsylvania, USA
Distance from station: N 16mi, 25km
Updated: 05/27/2018 9:54am
Overcast
Overcast
 Wind from ENE
Wind: ENE 6 mph , 9 km/h
Temperature: 66°F , 19°C
Dew Point: 64°F , 18°C
Humidity: 94%
Barometer: 30.00 inHg , 1015.9 hPa
Clouds: Overcast
Visibility: 9 miles , 14 km
Cloud details: Overcast 5500 ft
2018/05/27 13:54 KAVP 271354Z 06005KT 9SM OVC055 19/18 A3000 RMK AO2 SLP149 T01940178
KMPO - Mt. Pocono, Pennsylvania, USA
Distance from station: E 20mi, 33km
Updated: 05/27/2018 9:53am
Rain, Mist, Overcast
Rain, Mist, Overcast
 Wind from ENE
Wind: ENE 8 mph , 13 km/h
Temperature: 61°F , 16°C
Dew Point: 61°F , 16°C
Humidity: 100%
Barometer: 30.04 inHg , 1017.3 hPa
Summary: Rain, Mist
Clouds: Overcast
Visibility: 2 1/2 miles , 4 km
Cloud details: Mostly cloudy 500 ft
Mostly cloudy 3000 ft
Overcast 6000 ft
2018/05/27 13:53 KMPO 271353Z AUTO 06007KT 2 1/2SM RA BR BKN005 BKN030 OVC060 16/16 A3004 RMK AO2 RAB13 SLP167 P0023 T01610161
 
KABE - Allentown, Pennsylvania, USA
Distance from station: SSE 36mi, 58km
Updated: 05/27/2018 9:51am
Overcast
Overcast
 Wind from E
Wind: E 8 mph , 13 km/h
Temperature: 70°F , 21°C
Dew Point: 61°F , 16°C
Humidity: 73%
Barometer: 29.99 inHg , 1015.6 hPa
Clouds: Overcast
Visibility: 10 miles , 16 km
Cloud details: Overcast 1400 ft
2018/05/27 13:51 KABE 271351Z 09007KT 10SM OVC014 21/16 A2999 RMK AO2 SLP154 T02060161
KXLL - Allentown Queen, Pennsylvania, USA
Distance from station: SSE 41mi, 65km
Updated: 05/27/2018 9:35am
Overcast
Overcast
 Wind from ENE
Wind: ENE 10 mph , 17 km/h
Temperature: 68°F , 20°C
Dew Point: 63°F , 17°C
Humidity: 83%
Barometer: 30.00 inHg , 1015.9 hPa
Clouds: Overcast
Visibility: 10 miles , 16 km
Cloud details: Overcast 1100 ft
2018/05/27 13:35 KXLL 271335Z AUTO 07009KT 10SM OVC011 20/17 A3000 RMK AO2